Time;durP1;ratioP1;P1;durP2;ratioP2;P2;SDS_P1;SDS_P2;PMS_P1;PMS_P2;Temp;Humidity;BMP_temperature;BMP_pressure;BME280_temperature;BME280_humidity;BME280_pressure;Samples;Min_cycle;Max_cycle;Signal;HPM_P1;HPM_P2
2023/03/25 00:02:58;;;;;;;0.63;0.40;;;;;;;;;;10110884;29;20505;-87
2023/03/25 00:08:02;;;;;;;0.50;0.25;;;;;;;;;;10123657;29;20048;-88
2023/03/25 00:13:39;;;;;;;0.88;0.38;;;;;;;;;;10114272;29;20067;-88
2023/03/25 00:18:58;;;;;;;0.60;0.30;;;;;;;;;;10116259;29;20516;-89
2023/03/25 00:24:02;;;;;;;0.68;0.50;;;;;;;;;;10109905;29;20103;-88
2023/03/25 00:29:06;;;;;;;1.08;0.50;;;;;;;;;;10120586;29;20071;-87
2023/03/25 00:34:13;;;;;;;0.22;0.22;;;;;;;;;;10112121;29;20509;-87
2023/03/25 00:39:21;;;;;;;1.17;0.50;;;;;;;;;;10115688;29;20048;-89
2023/03/25 00:44:25;;;;;;;0.52;0.40;;;;;;;;;;10111774;29;20412;-88
2023/03/25 00:49:31;;;;;;;0.47;0.30;;;;;;;;;;10105890;29;20048;-88
2023/03/25 00:54:38;;;;;;;0.52;0.30;;;;;;;;;;10112993;29;20037;-88
2023/03/25 00:59:42;;;;;;;0.85;0.30;;;;;;;;;;10111054;29;20335;-89
2023/03/25 01:04:48;;;;;;;0.73;0.38;;;;;;;;;;10107597;29;20041;-88
2023/03/25 01:09:52;;;;;;;;;;;;;;;;;;10113535;29;20216;-89
2023/03/25 01:15:03;;;;;;;0.28;0.28;;;;;;;;;;10111270;29;19924;-88
2023/03/25 01:20:09;;;;;;;1.60;0.30;;;;;;;;;;10113062;29;20049;-88
2023/03/25 01:25:13;;;;;;;;;;;;;;;;;;10099223;29;20049;-88
2023/03/25 01:30:18;;;;;;;0.82;0.40;;;;;;;;;;10096137;29;19959;-89
2023/03/25 01:35:26;;;;;;;0.57;0.30;;;;;;;;;;10108160;29;20053;-89
2023/03/25 01:40:33;;;;;;;0.70;0.30;;;;;;;;;;10107996;29;20056;-90
2023/03/25 01:45:38;;;;;;;0.28;0.28;;;;;;;;;;10110766;29;20203;-89
2023/03/25 01:50:47;;;;;;;1.08;0.43;;;;;;;;;;10100357;29;20161;-89
2023/03/25 01:55:53;;;;;;;0.30;0.30;;;;;;;;;;10103428;29;20177;-89
2023/03/25 02:00:57;;;;;;;0.75;0.40;;;;;;;;;;10112282;29;20060;-88
2023/03/25 02:06:09;;;;;;;0.75;0.50;;;;;;;;;;10104547;29;20048;-88
2023/03/25 02:11:12;;;;;;;2.67;0.60;;;;;;;;;;10105315;29;20045;-88
2023/03/25 02:16:27;;;;;;;0.65;0.32;;;;;;;;;;10113544;29;20048;-90
2023/03/25 02:22:04;;;;;;;0.70;0.40;;;;;;;;;;10111917;29;20076;-88
2023/03/25 02:27:40;;;;;;;1.98;0.60;;;;;;;;;;10120657;29;20048;-89
2023/03/25 02:32:56;;;;;;;;;;;;;;;;;;10105733;29;20533;-89
2023/03/25 02:38:25;;;;;;;1.83;0.98;;;;;;;;;;10092037;29;19924;-88
2023/03/25 02:43:33;;;;;;;2.38;0.75;;;;;;;;;;10096061;29;20040;-88
2023/03/25 02:48:44;;;;;;;2.05;0.52;;;;;;;;;;10108967;29;20049;-89
2023/03/25 02:53:51;;;;;;;2.88;0.85;;;;;;;;;;10112319;29;20756;-88
2023/03/25 02:58:56;;;;;;;1.10;0.70;;;;;;;;;;10111038;29;20588;-88
2023/03/25 03:04:00;;;;;;;1.30;0.63;;;;;;;;;;10086030;29;20086;-88
2023/03/25 03:09:24;;;;;;;1.27;0.98;;;;;;;;;;10106984;29;20407;-88
2023/03/25 03:14:40;;;;;;;1.15;0.57;;;;;;;;;;10113456;29;20200;-88
2023/03/25 03:19:49;;;;;;;1.92;0.82;;;;;;;;;;10103585;29;20053;-88
2023/03/25 03:25:01;;;;;;;3.85;0.95;;;;;;;;;;10095528;29;20513;-88
2023/03/25 03:30:10;;;;;;;4.07;1.10;;;;;;;;;;10086655;29;20137;-89
2023/03/25 03:35:20;;;;;;;1.08;0.80;;;;;;;;;;10106884;29;20037;-88
2023/03/25 03:40:27;;;;;;;3.08;0.93;;;;;;;;;;10090866;29;20065;-89
2023/03/25 03:45:36;;;;;;;3.35;1.00;;;;;;;;;;10103427;29;20037;-88
2023/03/25 03:50:45;;;;;;;3.08;1.02;;;;;;;;;;10107722;29;20521;-88
2023/03/25 03:55:56;;;;;;;1.73;0.75;;;;;;;;;;10101695;29;20041;-88
2023/03/25 04:01:08;;;;;;;2.17;1.00;;;;;;;;;;10099511;29;20060;-90
2023/03/25 04:06:19;;;;;;;2.88;0.80;;;;;;;;;;10111019;29;20041;-88
2023/03/25 04:11:30;;;;;;;1.55;0.60;;;;;;;;;;10116330;29;20108;-89
2023/03/25 04:16:36;;;;;;;1.00;0.60;;;;;;;;;;10096862;29;20413;-90
2023/03/25 04:21:40;;;;;;;2.08;0.75;;;;;;;;;;10107955;29;21623;-88
2023/03/25 04:26:49;;;;;;;2.58;0.82;;;;;;;;;;10105667;29;20053;-89
2023/03/25 04:31:54;;;;;;;2.50;0.60;;;;;;;;;;10117360;29;20104;-88
2023/03/25 04:36:59;;;;;;;1.23;0.73;;;;;;;;;;10117104;29;20056;-87
2023/03/25 04:42:04;;;;;;;3.30;0.93;;;;;;;;;;10103766;29;20053;-87
2023/03/25 04:47:13;;;;;;;2.15;0.57;;;;;;;;;;10117449;29;20052;-88
2023/03/25 04:52:17;;;;;;;6.38;0.50;;;;;;;;;;10118506;29;20524;-87
2023/03/25 04:57:22;;;;;;;1.35;0.50;;;;;;;;;;10109627;29;20049;-88
2023/03/25 05:02:27;;;;;;;2.88;1.00;;;;;;;;;;10095936;29;20492;-89
2023/03/25 05:07:32;;;;;;;1.90;1.00;;;;;;;;;;10123125;29;20394;-89
2023/03/25 05:12:37;;;;;;;1.25;0.70;;;;;;;;;;10088853;29;20514;-87
2023/03/25 05:17:42;;;;;;;2.20;0.68;;;;;;;;;;10124979;29;20557;-88
2023/03/25 05:22:46;;;;;;;1.20;0.50;;;;;;;;;;10111345;29;20481;-87
2023/03/25 05:27:53;;;;;;;1.48;0.60;;;;;;;;;;10099670;29;20044;-87
2023/03/25 05:32:58;;;;;;;0.98;0.50;;;;;;;;;;10103200;29;20077;-88
2023/03/25 05:38:02;;;;;;;0.30;0.30;;;;;;;;;;10118156;29;20053;-86
2023/03/25 05:43:08;;;;;;;2.05;0.50;;;;;;;;;;10119342;29;20076;-86
2023/03/25 05:48:11;;;;;;;1.30;0.50;;;;;;;;;;10119650;29;20525;-87
2023/03/25 05:53:15;;;;;;;3.83;1.10;;;;;;;;;;10111679;29;20057;-87
2023/03/25 05:58:21;;;;;;;3.70;0.85;;;;;;;;;;10110346;29;20128;-86
2023/03/25 06:03:26;;;;;;;;;;;;;;;;;;10108743;29;20104;-87
2023/03/25 06:08:30;;;;;;;6.45;0.90;;;;;;;;;;10121851;29;20010;-85
2023/03/25 06:13:37;;;;;;;1.02;0.50;;;;;;;;;;10126788;29;20044;-85
2023/03/25 06:18:40;;;;;;;3.28;0.65;;;;;;;;;;10126884;29;20136;-86
2023/03/25 06:23:44;;;;;;;4.00;1.05;;;;;;;;;;10124504;29;20051;-85
2023/03/25 06:28:49;;;;;;;1.50;0.70;;;;;;;;;;10104102;29;20141;-85
2023/03/25 06:33:55;;;;;;;3.78;1.08;;;;;;;;;;10116753;29;20040;-85
2023/03/25 06:38:59;;;;;;;5.03;1.17;;;;;;;;;;10124716;29;20132;-85
2023/03/25 06:44:06;;;;;;;5.10;1.02;;;;;;;;;;10120899;29;20245;-86
2023/03/25 06:49:30;;;;;;;4.00;1.23;;;;;;;;;;10102578;29;20100;-86
2023/03/25 06:54:35;;;;;;;2.90;1.00;;;;;;;;;;10107839;29;20057;-87
2023/03/25 06:59:40;;;;;;;3.05;0.90;;;;;;;;;;10121329;29;20297;-86
2023/03/25 07:04:44;;;;;;;3.10;0.97;;;;;;;;;;10109517;29;20457;-86
2023/03/25 07:09:53;;;;;;;3.42;1.10;;;;;;;;;;10121084;29;20124;-86
2023/03/25 07:14:59;;;;;;;3.15;0.88;;;;;;;;;;10107201;29;20461;-85
2023/03/25 07:20:07;;;;;;;6.03;1.40;;;;;;;;;;10076984;29;20041;-85
2023/03/25 07:25:12;;;;;;;6.85;1.67;;;;;;;;;;10103815;29;20052;-86
2023/03/25 07:30:17;;;;;;;4.63;1.60;;;;;;;;;;10109362;29;20509;-86
2023/03/25 07:35:28;;;;;;;2.67;0.80;;;;;;;;;;10116174;29;20044;-91
2023/03/25 07:40:34;;;;;;;3.65;1.10;;;;;;;;;;10113399;29;20056;-90
2023/03/25 07:45:42;;;;;;;5.68;1.55;;;;;;;;;;10088023;29;20042;-91
2023/03/25 07:50:56;;;;;;;3.72;1.20;;;;;;;;;;10117411;29;20539;-91
2023/03/25 07:56:01;;;;;;;9.35;2.50;;;;;;;;;;10108909;29;20409;-85
2023/03/25 08:01:07;;;;;;;7.32;1.50;;;;;;;;;;10109054;29;20084;-88
2023/03/25 08:06:13;;;;;;;5.43;1.48;;;;;;;;;;10102061;29;20071;-85
2023/03/25 08:11:17;;;;;;;2.97;0.95;;;;;;;;;;10104448;29;20633;-84
2023/03/25 08:16:23;;;;;;;7.57;1.90;;;;;;;;;;10099953;29;20108;-85
2023/03/25 08:21:27;;;;;;;7.43;1.70;;;;;;;;;;10104682;29;20544;-84
2023/03/25 08:26:32;;;;;;;7.60;1.55;;;;;;;;;;10188816;23;20081;-84
2023/03/25 08:31:37;;;;;;;8.68;2.17;;;;;;;;;;10082907;29;20057;-83
2023/03/25 08:36:41;;;;;;;9.53;2.07;;;;;;;;;;10057334;29;20517;-84
2023/03/25 08:41:45;;;;;;;8.30;2.13;;;;;;;;;;10036584;29;20050;-85
2023/03/25 08:46:50;;;;;;;7.80;1.75;;;;;;;;;;10027033;29;20049;-82
2023/03/25 08:51:53;;;;;;;2.35;0.80;;;;;;;;;;10027951;29;20054;-85
2023/03/25 08:56:57;;;;;;;0.63;0.40;;;;;;;;;;10028999;29;20060;-86
2023/03/25 09:02:02;;;;;;;0.50;0.50;;;;;;;;;;10036346;29;20102;-87
2023/03/25 09:07:09;;;;;;;0.73;0.55;;;;;;;;;;10013401;29;20519;-85
2023/03/25 09:12:14;;;;;;;1.08;0.50;;;;;;;;;;10029361;29;20041;-90
2023/03/25 09:17:19;;;;;;;0.20;0.20;;;;;;;;;;10040082;29;20126;-85
2023/03/25 09:22:23;;;;;;;0.20;0.20;;;;;;;;;;10034113;29;20115;-87
2023/03/25 09:27:27;;;;;;;2.22;0.63;;;;;;;;;;10040107;29;20056;-87
2023/03/25 09:32:32;;;;;;;0.30;0.30;;;;;;;;;;10021494;29;20050;-89
2023/03/25 09:37:36;;;;;;;3.20;0.50;;;;;;;;;;10039716;29;20132;-88
2023/03/25 09:43:01;;;;;;;1.15;0.50;;;;;;;;;;10028192;29;20048;-87
2023/03/25 09:48:22;;;;;;;1.33;0.63;;;;;;;;;;10051819;29;20140;-89
2023/03/25 09:53:31;;;;;;;1.15;0.70;;;;;;;;;;10045562;29;20072;-88
2023/03/25 09:58:41;;;;;;;2.92;0.77;;;;;;;;;;10040594;29;20125;-88
2023/03/25 10:03:55;;;;;;;1.92;0.57;;;;;;;;;;10031418;29;20046;-87
2023/03/25 10:09:15;;;;;;;3.28;1.02;;;;;;;;;;10036871;29;20053;-88
2023/03/25 10:14:22;;;;;;;3.83;1.17;;;;;;;;;;10059538;29;20509;-91
2023/03/25 10:19:38;;;;;;;5.80;1.20;;;;;;;;;;10033813;29;20117;-88
2023/03/25 10:24:49;;;;;;;3.28;0.88;;;;;;;;;;10049137;29;20169;-88
2023/03/25 10:29:56;;;;;;;5.13;0.80;;;;;;;;;;10035881;29;20106;-86
2023/03/25 10:35:04;;;;;;;3.03;1.10;;;;;;;;;;10045503;29;20578;-86
2023/03/25 10:40:15;;;;;;;4.10;1.00;;;;;;;;;;10039473;29;20045;-88
2023/03/25 10:45:19;;;;;;;4.22;1.30;;;;;;;;;;10049096;29;20433;-88
2023/03/25 10:50:25;;;;;;;4.03;1.20;;;;;;;;;;10037489;29;20045;-87
2023/03/25 10:55:34;;;;;;;5.38;1.10;;;;;;;;;;10040252;29;20101;-88
2023/03/25 11:00:39;;;;;;;3.85;0.80;;;;;;;;;;10025506;29;20046;-87
2023/03/25 11:05:45;;;;;;;3.65;1.20;;;;;;;;;;10040419;29;20054;-86
2023/03/25 11:10:55;;;;;;;4.40;1.17;;;;;;;;;;10047735;29;20045;-89
2023/03/25 11:16:01;;;;;;;4.82;1.35;;;;;;;;;;10036474;29;20137;-87
2023/03/25 11:21:11;;;;;;;4.22;1.25;;;;;;;;;;10044962;29;20053;-85
2023/03/25 11:26:20;;;;;;;3.42;1.13;;;;;;;;;;10055141;29;20045;-88
2023/03/25 11:31:26;;;;;;;6.30;1.48;;;;;;;;;;10045382;29;20054;-86
2023/03/25 11:36:33;;;;;;;3.10;0.90;;;;;;;;;;10038229;29;20106;-88
2023/03/25 11:41:39;;;;;;;2.60;1.17;;;;;;;;;;10043213;29;20041;-89
2023/03/25 11:46:44;;;;;;;4.88;1.23;;;;;;;;;;10047112;29;20052;-88
2023/03/25 11:51:50;;;;;;;4.97;1.20;;;;;;;;;;10051859;29;20748;-86
2023/03/25 11:56:56;;;;;;;4.53;0.90;;;;;;;;;;10039417;29;20055;-87
2023/03/25 12:02:04;;;;;;;5.20;1.10;;;;;;;;;;10025477;29;20213;-87
2023/03/25 12:07:10;;;;;;;2.20;0.90;;;;;;;;;;10039511;29;20113;-87
2023/03/25 12:12:33;;;;;;;4.72;1.00;;;;;;;;;;10050953;29;20069;-85
2023/03/25 12:17:54;;;;;;;3.63;1.08;;;;;;;;;;10041410;29;20038;-85
2023/03/25 12:23:36;;;;;;;2.40;0.80;;;;;;;;;;10021953;29;20046;-86
2023/03/25 12:29:09;;;;;;;2.03;0.65;;;;;;;;;;10050977;29;20065;-86
2023/03/25 12:34:23;;;;;;;3.60;0.95;;;;;;;;;;10061007;29;20053;-89
2023/03/25 12:39:42;;;;;;;2.45;0.73;;;;;;;;;;10045546;29;20110;-88
2023/03/25 12:44:58;;;;;;;3.28;0.93;;;;;;;;;;10037681;29;20042;-86
2023/03/25 12:50:26;;;;;;;3.30;0.90;;;;;;;;;;10046130;29;20465;-86
2023/03/25 12:55:50;;;;;;;1.17;0.63;;;;;;;;;;10040119;29;20541;-87
2023/03/25 13:01:00;;;;;;;3.47;0.80;;;;;;;;;;10046357;29;20048;-87
2023/03/25 13:06:14;;;;;;;5.38;1.45;;;;;;;;;;10030988;29;20045;-86
2023/03/25 13:11:23;;;;;;;2.22;0.93;;;;;;;;;;10034534;29;20113;-85
2023/03/25 13:16:30;;;;;;;2.55;1.00;;;;;;;;;;10036090;29;20099;-84
2023/03/25 13:21:37;;;;;;;3.45;1.00;;;;;;;;;;10025469;29;20120;-85
2023/03/25 13:26:45;;;;;;;3.50;1.05;;;;;;;;;;10030056;29;20071;-86
2023/03/25 13:31:50;;;;;;;3.83;1.05;;;;;;;;;;10042789;29;20046;-85
2023/03/25 13:37:05;;;;;;;4.40;1.00;;;;;;;;;;10043615;29;20135;-86
2023/03/25 13:42:16;;;;;;;6.40;1.02;;;;;;;;;;10034692;29;20085;-83
2023/03/25 13:47:24;;;;;;;7.15;1.13;;;;;;;;;;10045200;29;20054;-85
2023/03/25 13:52:35;;;;;;;5.13;1.25;;;;;;;;;;10036761;29;20124;-86
2023/03/25 13:58:08;;;;;;;2.42;0.82;;;;;;;;;;10039937;29;20471;-85
2023/03/25 14:03:31;;;;;;;5.80;0.95;;;;;;;;;;10027219;29;20069;-84
2023/03/25 14:09:17;;;;;;;2.72;0.85;;;;;;;;;;10035429;29;20042;-84
2023/03/25 14:14:23;;;;;;;5.00;1.30;;;;;;;;;;10070154;29;20084;-84
2023/03/25 14:19:30;;;;;;;4.22;1.17;;;;;;;;;;10051944;29;20114;-84
2023/03/25 14:24:36;;;;;;;6.70;1.40;;;;;;;;;;10059025;29;20042;-85
2023/03/25 14:29:44;;;;;;;3.13;1.10;;;;;;;;;;10066231;29;20042;-85
2023/03/25 14:34:49;;;;;;;4.75;1.17;;;;;;;;;;10058352;29;20098;-85
2023/03/25 14:39:53;;;;;;;4.35;1.08;;;;;;;;;;10045923;29;20044;-85
2023/03/25 14:45:41;;;;;;;5.53;1.50;;;;;;;;;;10049503;29;20056;-87
2023/03/25 14:50:46;;;;;;;5.28;1.27;;;;;;;;;;10060138;29;20047;-85
2023/03/25 14:55:50;;;;;;;6.30;1.13;;;;;;;;;;10055572;29;20053;-86
2023/03/25 15:01:03;;;;;;;2.95;1.15;;;;;;;;;;10058406;29;20041;-83
2023/03/25 15:06:11;;;;;;;4.85;1.08;;;;;;;;;;10065472;29;20101;-85
2023/03/25 15:11:17;;;;;;;5.25;1.27;;;;;;;;;;10051255;29;20549;-85
2023/03/25 15:16:32;;;;;;;3.25;1.00;;;;;;;;;;10055064;29;20054;-84
2023/03/25 15:22:21;;;;;;;3.97;1.35;;;;;;;;;;10037782;29;20067;-84
2023/03/25 15:27:54;;;;;;;3.47;1.45;;;;;;;;;;10002563;29;20058;-84
2023/03/25 15:33:28;;;;;;;3.90;1.08;;;;;;;;;;10051533;29;20049;-85
2023/03/25 15:38:59;;;;;;;4.00;1.45;;;;;;;;;;10053410;29;20045;-83
2023/03/25 15:44:33;;;;;;;6.85;1.50;;;;;;;;;;10056972;29;20050;-83
2023/03/25 15:50:04;;;;;;;5.00;1.25;;;;;;;;;;10051335;29;20069;-82
2023/03/25 15:55:11;;;;;;;2.75;1.13;;;;;;;;;;10036089;29;20058;-85
2023/03/25 16:00:22;;;;;;;2.08;0.80;;;;;;;;;;10051106;29;20076;-85
2023/03/25 16:05:28;;;;;;;3.28;0.73;;;;;;;;;;10042515;29;20088;-84
2023/03/25 16:10:35;;;;;;;1.77;0.70;;;;;;;;;;10043927;29;20102;-84
2023/03/25 16:15:40;;;;;;;4.47;1.17;;;;;;;;;;10047105;29;20144;-84
2023/03/25 16:20:46;;;;;;;6.93;1.02;;;;;;;;;;10034420;29;20042;-83
2023/03/25 16:25:50;;;;;;;5.22;1.00;;;;;;;;;;10037846;29;20468;-83
2023/03/25 16:30:55;;;;;;;1.48;0.73;;;;;;;;;;10041625;29;20072;-83
2023/03/25 16:36:05;;;;;;;4.90;0.90;;;;;;;;;;10043023;29;20050;-83
2023/03/25 16:41:13;;;;;;;4.22;1.08;;;;;;;;;;10052488;29;20086;-83
2023/03/25 16:46:17;;;;;;;5.20;1.05;;;;;;;;;;10053534;29;20502;-83
2023/03/25 16:51:27;;;;;;;4.18;0.95;;;;;;;;;;10050169;29;20053;-83
2023/03/25 16:56:31;;;;;;;5.25;1.30;;;;;;;;;;10050879;29;20049;-82
2023/03/25 17:01:39;;;;;;;2.58;1.00;;;;;;;;;;10023035;29;20053;-82
2023/03/25 17:06:45;;;;;;;4.63;0.65;;;;;;;;;;10041073;29;20490;-83
2023/03/25 17:11:52;;;;;;;;;;;;;;;;;;10026526;29;20068;-82
2023/03/25 17:16:56;;;;;;;1.70;0.80;;;;;;;;;;10021469;29;19955;-84
2023/03/25 17:22:15;;;;;;;2.97;1.10;;;;;;;;;;10033369;29;20053;-83
2023/03/25 17:27:24;;;;;;;1.95;0.50;;;;;;;;;;10035984;29;20081;-83
2023/03/25 17:32:28;;;;;;;1.63;0.70;;;;;;;;;;10027810;29;20365;-87
2023/03/25 17:37:33;;;;;;;2.33;0.70;;;;;;;;;;10046039;29;20050;-85
2023/03/25 17:42:40;;;;;;;3.25;0.57;;;;;;;;;;10054604;29;20100;-85
2023/03/25 17:47:43;;;;;;;;;;;;;;;;;;10045899;29;20057;-85
2023/03/25 17:52:49;;;;;;;2.85;0.68;;;;;;;;;;10044385;29;19924;-85
2023/03/25 17:57:53;;;;;;;1.45;0.73;;;;;;;;;;10047781;29;20608;-84
2023/03/25 18:02:57;;;;;;;1.77;0.82;;;;;;;;;;10043788;29;20505;-85
2023/03/25 18:08:03;;;;;;;1.92;0.75;;;;;;;;;;10050526;29;20056;-86
2023/03/25 18:13:07;;;;;;;3.13;0.88;;;;;;;;;;10037532;29;20077;-85
2023/03/25 18:18:16;;;;;;;1.58;0.60;;;;;;;;;;10050688;29;20082;-86
2023/03/25 18:23:22;;;;;;;2.20;0.77;;;;;;;;;;10054814;29;20113;-86
2023/03/25 18:28:25;;;;;;;1.43;1.10;;;;;;;;;;10049619;29;20074;-85
2023/03/25 18:33:32;;;;;;;2.58;0.80;;;;;;;;;;10050360;29;20045;-85
2023/03/25 18:38:38;;;;;;;3.10;0.90;;;;;;;;;;10052545;29;20117;-85
2023/03/25 18:43:42;;;;;;;1.65;0.75;;;;;;;;;;10039393;29;20049;-86
2023/03/25 18:48:46;;;;;;;3.58;1.15;;;;;;;;;;10032934;29;20510;-85
2023/03/25 18:53:51;;;;;;;3.90;0.90;;;;;;;;;;10067298;29;20065;-86
2023/03/25 18:58:55;;;;;;;3.28;0.90;;;;;;;;;;10059884;29;20049;-85
2023/03/25 19:04:01;;;;;;;4.10;1.00;;;;;;;;;;10046115;29;20057;-86
2023/03/25 19:09:08;;;;;;;;;;;;;;;;;;10039971;29;20525;-84
2023/03/25 19:14:11;;;;;;;;;;;;;;;;;;10043998;29;19924;-86
2023/03/25 19:19:22;;;;;;;1.45;0.70;;;;;;;;;;10037689;29;20027;-85
2023/03/25 19:24:28;;;;;;;2.63;1.10;;;;;;;;;;10038407;29;20069;-85
2023/03/25 19:29:31;;;;;;;5.05;0.88;;;;;;;;;;10035603;29;20058;-86
2023/03/25 19:34:35;;;;;;;2.95;1.00;;;;;;;;;;10043115;29;20532;-86
2023/03/25 19:39:41;;;;;;;1.48;0.82;;;;;;;;;;10033398;29;20046;-87
2023/03/25 19:44:45;;;;;;;1.70;0.90;;;;;;;;;;10031515;29;20049;-87
2023/03/25 19:49:49;;;;;;;3.30;1.00;;;;;;;;;;10056625;29;20117;-84
2023/03/25 19:54:54;;;;;;;2.60;0.95;;;;;;;;;;10029041;29;20046;-87
2023/03/25 19:59:58;;;;;;;3.35;1.15;;;;;;;;;;10035450;29;20468;-87
2023/03/25 20:05:04;;;;;;;3.22;0.60;;;;;;;;;;10039815;29;20090;-83
2023/03/25 20:10:13;;;;;;;1.33;0.68;;;;;;;;;;10038148;29;20049;-87
2023/03/25 20:15:23;;;;;;;3.65;0.80;;;;;;;;;;10031140;29;20049;-86
2023/03/25 20:20:27;;;;;;;3.13;1.00;;;;;;;;;;10046635;29;20105;-86
2023/03/25 20:25:32;;;;;;;3.42;1.08;;;;;;;;;;10035623;29;20522;-87
2023/03/25 20:30:55;;;;;;;4.75;0.82;;;;;;;;;;10031733;29;20793;-86
2023/03/25 20:36:00;;;;;;;3.22;1.02;;;;;;;;;;10049301;29;20067;-84
2023/03/25 20:41:07;;;;;;;2.97;0.95;;;;;;;;;;10049737;29;20100;-87
2023/03/25 20:46:13;;;;;;;2.75;1.10;;;;;;;;;;10040647;29;20068;-87
2023/03/25 20:51:17;;;;;;;3.20;1.00;;;;;;;;;;10043817;29;20077;-86
2023/03/25 20:56:22;;;;;;;3.45;1.15;;;;;;;;;;10031181;29;20106;-87
2023/03/25 21:01:25;;;;;;;4.07;1.13;;;;;;;;;;10029266;29;20144;-87
2023/03/25 21:06:29;;;;;;;2.78;0.98;;;;;;;;;;10038800;29;20077;-87
2023/03/25 21:11:34;;;;;;;2.38;1.17;;;;;;;;;;10043259;29;20046;-86
2023/03/25 21:16:39;;;;;;;5.20;1.10;;;;;;;;;;10047454;29;20049;-82
2023/03/25 21:21:42;;;;;;;3.90;1.02;;;;;;;;;;10044094;29;20045;-87
2023/03/25 21:26:47;;;;;;;4.20;1.10;;;;;;;;;;10044612;29;20049;-87
2023/03/25 21:31:51;;;;;;;2.90;0.88;;;;;;;;;;10039228;29;20049;-86
2023/03/25 21:36:59;;;;;;;3.53;1.00;;;;;;;;;;10032630;29;20054;-88
2023/03/25 21:42:11;;;;;;;4.60;1.02;;;;;;;;;;10067673;29;20409;-85
2023/03/25 21:47:16;;;;;;;4.53;0.90;;;;;;;;;;10052242;29;20550;-86
2023/03/25 21:52:21;;;;;;;5.70;1.60;;;;;;;;;;10029912;29;20791;-87
2023/03/25 21:57:26;;;;;;;2.58;1.08;;;;;;;;;;10036310;29;20074;-87
2023/03/25 22:02:30;;;;;;;3.83;1.25;;;;;;;;;;10031410;29;20518;-88
2023/03/25 22:07:34;;;;;;;3.65;1.10;;;;;;;;;;10024067;29;20050;-87
2023/03/25 22:12:43;;;;;;;1.98;0.88;;;;;;;;;;10042381;29;20045;-86
2023/03/25 22:17:49;;;;;;;3.97;1.42;;;;;;;;;;10037054;29;20052;-87
2023/03/25 22:22:53;;;;;;;5.22;1.50;;;;;;;;;;10053636;29;20046;-86
2023/03/25 22:27:58;;;;;;;4.15;1.50;;;;;;;;;;10039432;29;20109;-87
2023/03/25 22:33:02;;;;;;;6.28;1.60;;;;;;;;;;10045980;29;20053;-88
2023/03/25 22:38:06;;;;;;;4.90;1.20;;;;;;;;;;10058818;29;20057;-87
2023/03/25 22:43:13;;;;;;;4.25;1.42;;;;;;;;;;10039869;29;20101;-86
2023/03/25 22:48:19;;;;;;;4.20;1.20;;;;;;;;;;10048587;29;20057;-86
2023/03/25 22:53:23;;;;;;;4.88;0.95;;;;;;;;;;10034462;29;20073;-87
2023/03/25 22:58:31;;;;;;;3.15;1.52;;;;;;;;;;10061083;29;20059;-87
2023/03/25 23:03:35;;;;;;;3.28;1.45;;;;;;;;;;10037598;29;20125;-85
2023/03/25 23:08:39;;;;;;;4.57;1.70;;;;;;;;;;10027883;29;20471;-85
2023/03/25 23:13:47;;;;;;;8.00;1.80;;;;;;;;;;10028587;29;20034;-85
2023/03/25 23:18:51;;;;;;;5.30;2.08;;;;;;;;;;10035535;29;20046;-85
2023/03/25 23:23:57;;;;;;;5.07;1.50;;;;;;;;;;10048404;29;20060;-86
2023/03/25 23:29:04;;;;;;;6.80;2.00;;;;;;;;;;10043464;29;20132;-86
2023/03/25 23:34:12;;;;;;;6.28;1.63;;;;;;;;;;10043476;29;20069;-85
2023/03/25 23:39:20;;;;;;;7.43;2.30;;;;;;;;;;10042531;29;20046;-85
2023/03/25 23:44:26;;;;;;;6.60;1.42;;;;;;;;;;10039790;29;20060;-85
2023/03/25 23:49:32;;;;;;;5.75;1.60;;;;;;;;;;10039352;29;20137;-84
2023/03/25 23:54:35;;;;;;;5.38;1.75;;;;;;;;;;10043521;29;20072;-86
2023/03/25 23:59:40;;;;;;;6.35;2.13;;;;;;;;;;10041048;29;20414;-86
